createdAt,value
2018-05-29T00:05:52.114Z,11.13
2018-05-29T00:11:47.088Z,12.08
2018-05-29T00:17:42.112Z,14.45
2018-05-29T00:23:37.093Z,9.89
2018-05-29T00:29:32.120Z,11.22
2018-05-29T00:35:27.140Z,13.99
2018-05-29T00:41:22.111Z,11.18
2018-05-29T00:47:17.215Z,8.84
2018-05-29T00:53:12.087Z,14.92
2018-05-29T00:59:07.070Z,12.98
2018-05-29T01:05:02.128Z,18.42
2018-05-29T01:10:57.114Z,11.45
2018-05-29T01:16:52.124Z,11.16
2018-05-29T01:22:47.124Z,9.59
2018-05-29T01:28:42.133Z,10.42
2018-05-29T01:34:37.183Z,14.6
2018-05-29T01:40:32.110Z,18.69
2018-05-29T01:46:27.133Z,12.93
2018-05-29T01:52:22.142Z,15.17
2018-05-29T01:58:17.120Z,16.12
2018-05-29T02:04:12.187Z,12.3
2018-05-29T02:10:07.133Z,13.22
2018-05-29T02:16:02.150Z,12.13
2018-05-29T02:21:57.134Z,9.33
2018-05-29T02:27:52.114Z,12.03
2018-05-29T02:33:47.180Z,15.23
2018-05-29T02:39:42.108Z,13.85
2018-05-29T02:45:37.164Z,10.9
2018-05-29T02:51:32.120Z,11
2018-05-29T02:57:27.157Z,10.08
2018-05-29T03:03:22.185Z,11.52
2018-05-29T03:09:17.148Z,16.77
2018-05-29T03:15:12.577Z,13.68
2018-05-29T03:21:07.176Z,11.9
2018-05-29T03:27:02.155Z,9.25
2018-05-29T03:32:57.122Z,9.73
2018-05-29T03:38:52.136Z,13.45
2018-05-29T03:44:47.153Z,13.17
2018-05-29T03:50:42.219Z,12.16
2018-05-29T03:56:37.145Z,14.42
2018-05-29T04:02:32.254Z,13.32
2018-05-29T04:08:27.131Z,11.69
2018-05-29T04:14:22.215Z,14.35
2018-05-29T04:20:17.127Z,15.39
2018-05-29T04:26:12.150Z,12.37
2018-05-29T04:32:07.157Z,11.52
2018-05-29T04:38:02.406Z,10.5
2018-05-29T04:43:57.123Z,15.08
2018-05-29T04:49:52.206Z,15.48
2018-05-29T04:55:47.312Z,10.6
2018-05-29T05:01:42.553Z,13.93
2018-05-29T05:07:37.192Z,12.18
2018-05-29T05:13:32.198Z,15.21
2018-05-29T05:19:27.194Z,15.17
2018-05-29T05:25:22.170Z,13.91
2018-05-29T05:31:17.265Z,15.14
2018-05-29T05:37:12.139Z,14.99
2018-05-29T05:43:07.162Z,18.13
2018-05-29T05:49:02.152Z,17.15
2018-05-29T05:54:57.126Z,20.32
2018-05-29T06:00:52.435Z,21.24
2018-05-29T06:06:47.207Z,24.2
2018-05-29T06:12:42.171Z,19.33
2018-05-29T06:18:37.194Z,18.43
2018-05-29T06:24:32.384Z,20.48
2018-05-29T06:30:27.172Z,18.75
2018-05-29T06:36:22.273Z,22.46
2018-05-29T06:42:17.221Z,15.64
2018-05-29T06:48:12.204Z,15.6
2018-05-29T06:54:07.281Z,18.86
2018-05-29T07:00:03.079Z,23.91
2018-05-29T07:05:57.218Z,20.61
2018-05-29T07:11:52.303Z,25.13
2018-05-29T07:17:47.204Z,22.7
2018-05-29T07:23:42.216Z,22.4
2018-05-29T07:29:37.170Z,19.78
2018-05-29T07:35:32.201Z,26.03
2018-05-29T07:41:27.166Z,18.47
2018-05-29T07:47:22.168Z,17.43
2018-05-29T07:53:17.165Z,15.4
2018-05-29T07:59:12.198Z,19.46
2018-05-29T08:05:07.190Z,19.64
2018-05-29T08:11:02.219Z,16.93
2018-05-29T08:16:57.221Z,12.65
2018-05-29T08:22:52.218Z,15.31
2018-05-29T08:28:47.208Z,11.55
2018-05-29T08:34:42.213Z,9.01
2018-05-29T08:40:37.255Z,8.33
2018-05-29T08:46:32.196Z,12.63
2018-05-29T08:52:27.204Z,11.73
2018-05-29T08:58:22.302Z,12.88
2018-05-29T09:04:17.370Z,16.3
2018-05-29T09:10:12.328Z,11.99
2018-05-29T09:16:07.278Z,11.59
2018-05-29T09:22:02.254Z,13.58
2018-05-29T09:27:57.220Z,14.29
2018-05-29T09:33:52.210Z,14.1
2018-05-29T09:39:47.216Z,9.23
2018-05-29T09:45:42.295Z,9.88
2018-05-29T09:51:37.339Z,11.77
2018-05-29T09:57:32.308Z,14.11
2018-05-29T10:03:27.225Z,15.26
2018-05-29T10:09:22.253Z,17.23
2018-05-29T10:15:17.330Z,13.39
2018-05-29T10:21:12.257Z,13.09
2018-05-29T10:27:07.270Z,14.65
2018-05-29T10:33:02.272Z,13.8
2018-05-29T10:38:57.233Z,13.17
2018-05-29T10:44:52.278Z,8.32
2018-05-29T10:50:47.258Z,7.07
2018-05-29T10:56:42.310Z,7.38
2018-05-29T11:02:37.251Z,13.1
2018-05-29T11:08:32.319Z,9.28
2018-05-29T11:14:27.283Z,10.95
2018-05-29T11:20:22.249Z,8.57
2018-05-29T11:26:17.278Z,12.91
2018-05-29T11:32:12.332Z,11.93
2018-05-29T11:38:07.266Z,15.53
2018-05-29T11:44:02.296Z,10.83
2018-05-29T11:49:57.351Z,11.49
2018-05-29T11:55:52.288Z,12.65
2018-05-29T12:01:47.339Z,9.65
2018-05-29T12:07:42.392Z,10.96
2018-05-29T12:13:37.364Z,10.57
2018-05-29T12:19:32.265Z,12.16
2018-05-29T12:25:27.317Z,12.02
2018-05-29T12:31:22.335Z,12.98
2018-05-29T12:37:17.329Z,15.32
2018-05-29T12:43:12.338Z,9.88
2018-05-29T12:49:07.401Z,11.74
2018-05-29T12:55:02.632Z,9.66
2018-05-29T13:00:57.303Z,9.41
2018-05-29T13:06:52.459Z,14.29
2018-05-29T13:12:47.303Z,11.08
2018-05-29T13:18:42.749Z,9.52
2018-05-29T13:24:37.308Z,7.99
2018-05-29T13:30:32.310Z,6.32
2018-05-29T13:36:27.330Z,9.93
2018-05-29T13:42:22.421Z,12.09
2018-05-29T13:48:17.360Z,9.84
2018-05-29T13:54:12.360Z,15.06
2018-05-29T14:00:07.828Z,7.57
2018-05-29T14:06:02.475Z,10.7
2018-05-29T14:11:57.340Z,5.52
2018-05-29T14:17:52.353Z,8.68
2018-05-29T14:23:47.436Z,12.55
2018-05-29T14:29:42.347Z,7.4
2018-05-29T14:35:37.416Z,13.94
2018-05-29T14:41:32.357Z,11.25
2018-05-29T14:47:27.346Z,11.53
2018-05-29T14:53:22.359Z,9.34
2018-05-29T14:59:17.387Z,9.1
2018-05-29T15:05:12.362Z,13.28
2018-05-29T15:11:07.368Z,7.37
2018-05-29T15:17:02.360Z,6.52
2018-05-29T15:22:57.378Z,7.89
2018-05-29T15:28:52.432Z,10.66
2018-05-29T15:34:47.393Z,11.93
2018-05-29T15:40:42.441Z,13.49
2018-05-29T15:46:37.431Z,8.42
2018-05-29T15:52:32.390Z,11.17
2018-05-29T15:58:27.431Z,10.28
2018-05-29T16:04:22.378Z,7.37
2018-05-29T16:10:17.379Z,10
2018-05-29T16:16:12.391Z,10.75
2018-05-29T16:22:07.395Z,10.45
2018-05-29T16:28:02.470Z,9.32
2018-05-29T16:33:57.388Z,9.32
2018-05-29T16:39:52.427Z,8.32
2018-05-29T16:45:47.423Z,16
2018-05-29T16:51:42.404Z,11.22
2018-05-29T16:57:37.451Z,9.76
2018-05-29T17:03:32.449Z,15.71
2018-05-29T17:09:27.415Z,8.84
2018-05-29T17:15:22.545Z,14.86
2018-05-29T17:21:17.564Z,9.48
2018-05-29T17:27:12.448Z,12.1
2018-05-29T17:33:07.534Z,11.53
2018-05-29T17:39:02.414Z,13.9
2018-05-29T17:44:57.483Z,19.44
2018-05-29T17:50:52.425Z,17.09
2018-05-29T17:56:47.475Z,19.73
2018-05-29T18:02:42.421Z,19.99
2018-05-29T18:08:37.470Z,17.18
2018-05-29T18:14:32.441Z,17.38
2018-05-29T18:20:27.478Z,14.46
2018-05-29T18:26:22.504Z,11.45
2018-05-29T18:32:17.452Z,18.43
2018-05-29T18:38:12.495Z,15.3
2018-05-29T18:44:07.439Z,10.81
2018-05-29T18:50:02.476Z,11.25
2018-05-29T18:55:57.470Z,9.27
2018-05-29T19:01:52.471Z,12.59
2018-05-29T19:07:47.495Z,10.36
2018-05-29T19:13:42.495Z,7.6
2018-05-29T19:19:37.459Z,9.43
2018-05-29T19:25:32.484Z,8.96
2018-05-29T19:31:27.493Z,12.05
2018-05-29T19:37:22.485Z,11.19
2018-05-29T19:43:17.468Z,11.37
2018-05-29T19:49:12.470Z,8.25
2018-05-29T19:55:07.467Z,8.16
2018-05-29T20:01:02.482Z,10.21
2018-05-29T20:06:57.541Z,7.96
2018-05-29T20:12:52.489Z,9.8
2018-05-29T20:18:47.514Z,10.78
2018-05-29T20:24:42.479Z,11.6
2018-05-29T20:30:37.472Z,7.62
2018-05-29T20:36:32.544Z,9.38
2018-05-29T20:42:27.541Z,10.27
2018-05-29T20:48:22.523Z,7.79
2018-05-29T20:54:17.496Z,8.7
2018-05-29T21:00:12.533Z,11.27
2018-05-29T21:06:07.503Z,10.5
2018-05-29T21:12:02.606Z,8.07
2018-05-29T21:17:57.516Z,11.42
2018-05-29T21:23:52.500Z,12.97
2018-05-29T21:29:47.512Z,15.87
2018-05-29T21:35:42.519Z,12.8
2018-05-29T21:41:37.527Z,14.42
2018-05-29T21:47:32.519Z,10.93
2018-05-29T21:53:27.520Z,10.06
2018-05-29T21:59:22.534Z,11.55
2018-05-29T22:05:17.553Z,10.94
2018-05-29T22:11:12.628Z,8.99
2018-05-29T22:17:07.528Z,14.38
2018-05-29T22:23:02.617Z,9.74
2018-05-29T22:28:57.563Z,8.81
2018-05-29T22:34:52.542Z,10.01
2018-05-29T22:40:47.617Z,11.75
2018-05-29T22:46:42.562Z,13.33
2018-05-29T22:52:37.558Z,9.71
2018-05-29T22:58:32.573Z,13.3
2018-05-29T23:04:27.598Z,13.3
2018-05-29T23:10:22.537Z,12.3
2018-05-29T23:16:17.614Z,11.24
2018-05-29T23:22:12.545Z,11.53
2018-05-29T23:28:07.563Z,9.89
2018-05-29T23:34:02.538Z,9.44
2018-05-29T23:39:57.542Z,10.84
2018-05-29T23:45:52.634Z,10.52
2018-05-29T23:51:47.578Z,10.15
2018-05-29T23:57:42.595Z,11.39
